LFPM 162130Z AUTO 10004KT 9999 BKN021 OVC036 05/04 Q1009

Les avions qui composent notre flotte

Avion Robin DR400 2+2

L'avion école par excellence

F-GAVN
   * tarif promotionnel appliqué pendant la formation des élèves non brevetés


F-GAVN Planche